Time;durP1;ratioP1;P1;durP2;ratioP2;P2;SDS_P1;SDS_P2;PMS_P1;PMS_P2;Temp;Humidity;BMP_temperature;BMP_pressure;BME280_temperature;BME280_humidity;BME280_pressure;Samples;Min_cycle;Max_cycle;Signal;HPM_P1;HPM_P2
2022/08/12 00:43:15;;;;;;;6.07;3.10;;;;;;;18.79;53.60;101768.66;5052101;28;20595;-80
2022/08/12 00:48:27;;;;;;;4.18;3.20;;;;;;;18.75;53.52;101781.19;5071723;28;20101;-81
2022/08/12 00:50:56;;;;;;;5.68;3.20;;;;;;;18.74;53.81;101785.00;5071172;28;20032;-81
2022/08/12 00:53:22;;;;;;;8.90;3.37;;;;;;;18.65;53.80;101773.97;5071282;28;20032;-80
2022/08/12 00:55:50;;;;;;;5.73;3.40;;;;;;;18.66;53.67;101772.03;5071663;28;20298;-81
2022/08/12 00:58:22;;;;;;;7.78;3.47;;;;;;;18.59;54.17;101770.50;5062399;28;20053;-80
2022/08/12 01:00:50;;;;;;;10.43;3.20;;;;;;;18.57;54.20;101772.72;5049253;28;20024;-80
2022/08/12 01:03:18;;;;;;;6.18;3.35;;;;;;;18.55;54.76;101769.47;5071007;28;20020;-81
2022/08/12 01:11:33;;;;;;;5.80;3.10;;;;;;;18.46;55.57;101771.19;5051016;28;20109;-80
2022/08/12 01:14:01;;;;;;;3.30;2.92;;;;;;;18.38;56.04;101775.34;5050464;28;20036;-80
2022/08/12 01:16:27;;;;;;;4.50;2.78;;;;;;;18.40;55.50;101775.06;5050787;28;20025;-81
2022/08/12 01:18:55;;;;;;;7.90;3.05;;;;;;;18.33;55.40;101767.28;5059141;28;20039;-81
2022/08/12 01:21:26;;;;;;;3.80;3.35;;;;;;;18.29;56.00;101772.44;5070232;28;20543;-81
2022/08/12 01:24:32;;;;;;;5.60;3.35;;;;;;;18.29;54.90;101761.59;5064701;28;20036;-81
2022/08/12 01:27:01;;;;;;;4.25;3.00;;;;;;;18.24;56.10;101764.38;5070951;28;20032;-81
2022/08/12 01:29:30;;;;;;;5.68;3.17;;;;;;;18.21;56.57;101766.84;5066067;28;20384;-81
2022/08/12 01:31:57;;;;;;;7.63;3.33;;;;;;;18.18;56.18;101762.81;5064540;28;20058;-81
2022/08/12 01:34:29;;;;;;;6.70;3.00;;;;;;;18.12;55.75;101761.22;5060218;28;20323;-81
2022/08/12 01:36:58;;;;;;;5.50;3.42;;;;;;;18.07;56.94;101770.22;5049576;28;20091;-80
2022/08/12 01:39:29;;;;;;;5.70;3.10;;;;;;;18.05;56.87;101771.63;5047763;28;20029;-81
2022/08/12 01:42:00;;;;;;;5.97;3.28;;;;;;;18.02;57.37;101778.41;5050237;28;20029;-81
2022/08/12 01:44:29;;;;;;;4.35;3.22;;;;;;;17.94;57.29;101771.66;5049037;28;20037;-81
2022/08/12 01:47:04;;;;;;;4.93;3.60;;;;;;;17.97;56.41;101771.09;5049964;28;20029;-80
2022/08/12 01:49:43;;;;;;;3.55;3.00;;;;;;;17.94;57.52;101771.66;5046862;28;20029;-81
2022/08/12 01:52:27;;;;;;;3.50;3.20;;;;;;;17.92;56.41;101773.06;5050669;28;20100;-81
2022/08/12 01:54:52;;;;;;;5.75;3.40;;;;;;;17.82;58.91;101763.09;5048483;28;20096;-81
2022/08/12 01:57:40;;;;;;;4.83;2.80;;;;;;;17.82;57.45;101773.94;5058723;28;20150;-81
2022/08/12 02:00:11;;;;;;;3.92;3.33;;;;;;;17.79;58.00;101761.78;5070206;28;20036;-81
2022/08/12 02:03:02;;;;;;;6.78;3.20;;;;;;;17.74;58.17;101761.00;5069807;28;20476;-81
2022/08/12 02:11:46;;;;;;;5.38;3.20;;;;;;;17.63;58.54;101766.50;5049796;28;20047;-80
2022/08/12 02:14:33;;;;;;;5.90;3.37;;;;;;;17.55;57.68;101762.50;5051308;28;20052;-81
2022/08/12 02:17:13;;;;;;;3.60;3.30;;;;;;;17.57;58.99;101759.50;5049462;28;20279;-81
2022/08/12 02:20:03;;;;;;;5.53;3.33;;;;;;;17.52;59.51;101765.78;5049912;28;20080;-80
2022/08/12 02:22:35;;;;;;;5.68;3.25;;;;;;;17.49;59.29;101754.69;5047145;28;20036;-81
2022/08/12 02:25:08;;;;;;;7.65;3.50;;;;;;;17.45;59.43;101754.44;5048811;28;20036;-81
2022/08/12 02:27:38;;;;;;;5.88;3.45;;;;;;;17.37;59.24;101747.72;5069692;28;20034;-80
2022/08/12 02:30:07;;;;;;;7.07;3.63;;;;;;;17.36;60.30;101764.25;5064630;28;20040;-80
2022/08/12 02:32:37;;;;;;;6.18;3.40;;;;;;;17.30;60.67;101757.25;5069975;28;20387;-80
2022/08/12 02:35:04;;;;;;;6.15;3.38;;;;;;;17.28;60.39;101754.84;5049173;28;20156;-80
2022/08/12 02:37:30;;;;;;;7.10;3.50;;;;;;;17.26;60.74;101752.38;5045359;28;20036;-80
2022/08/12 02:40:00;;;;;;;4.37;3.30;;;;;;;17.18;61.36;101750.28;5047897;28;20029;-81
2022/08/12 02:42:31;;;;;;;4.85;3.80;;;;;;;17.17;60.86;101753.25;5049537;28;20068;-80
2022/08/12 02:44:59;;;;;;;7.20;3.78;;;;;;;17.07;61.21;101754.94;5049993;28;20025;-81
2022/08/12 02:47:29;;;;;;;5.90;3.65;;;;;;;17.07;61.78;101748.75;5048803;28;20083;-80
2022/08/12 02:49:57;;;;;;;5.32;3.90;;;;;;;17.07;62.24;101749.53;5068360;28;20052;-80
2022/08/12 02:52:25;;;;;;;8.48;4.13;;;;;;;17.07;61.79;101749.53;5069824;28;20016;-80
2022/08/12 02:54:57;;;;;;;5.22;3.72;;;;;;;17.05;61.51;101751.72;5051209;28;20480;-80
2022/08/12 02:57:22;;;;;;;6.37;3.93;;;;;;;16.98;62.12;101753.91;5054903;28;20103;-80
2022/08/12 02:59:49;;;;;;;5.70;4.47;;;;;;;16.98;62.42;101755.81;5073808;28;20448;-80
2022/08/12 03:02:18;;;;;;;5.72;4.40;;;;;;;16.98;62.36;101753.09;5073583;28;20027;-80
2022/08/12 03:04:49;;;;;;;6.60;4.28;;;;;;;16.98;61.94;101751.19;5063948;28;20044;-80
2022/08/12 03:07:28;;;;;;;5.70;4.40;;;;;;;16.98;61.98;101751.19;5072974;28;20166;-80
2022/08/12 03:10:04;;;;;;;6.55;4.50;;;;;;;16.96;62.05;101747.97;5073052;28;20119;-80
2022/08/12 03:12:33;;;;;;;6.60;4.40;;;;;;;16.94;62.79;101742.81;5052797;28;20029;-80
2022/08/12 03:15:03;;;;;;;6.57;4.80;;;;;;;16.88;62.06;101743.94;5053465;28;20283;-80
2022/08/12 03:17:37;;;;;;;7.68;4.03;;;;;;;16.85;62.44;101740.94;5053475;28;20024;-80
2022/08/12 03:20:05;;;;;;;4.85;4.28;;;;;;;16.84;62.75;101742.88;5052921;28;20063;-81
2022/08/12 03:22:32;;;;;;;11.77;4.57;;;;;;;16.80;63.02;101741.78;5059907;28;20024;-80
2022/08/12 03:25:02;;;;;;;5.00;4.45;;;;;;;16.71;63.56;101743.44;5071090;28;20033;-81
2022/08/12 03:27:30;;;;;;;7.88;4.28;;;;;;;16.66;64.18;101744.28;5060748;28;20082;-80
2022/08/12 03:29:57;;;;;;;5.90;4.70;;;;;;;16.62;63.99;101740.50;5052693;28;20021;-81
2022/08/12 03:32:24;;;;;;;7.85;4.78;;;;;;;16.55;64.55;101732.69;5052383;28;20025;-81
2022/08/12 03:34:55;;;;;;;7.13;4.32;;;;;;;16.49;64.07;101731.91;5052399;28;20044;-81
2022/08/12 03:37:23;;;;;;;5.03;4.27;;;;;;;16.44;64.26;101725.69;5052843;28;20086;-81
2022/08/12 03:39:48;;;;;;;7.93;4.90;;;;;;;16.47;64.66;101731.34;5051469;28;20357;-81
2022/08/12 03:42:32;;;;;;;5.10;4.60;;;;;;;16.45;64.17;101728.13;5056997;28;20021;-81
2022/08/12 04:01:56;;;;;;;9.93;4.57;;;;;;;16.12;66.49;101737.69;5032436;28;20400;-81
2022/08/12 04:04:33;;;;;;;6.75;4.88;;;;;;;16.12;66.03;101735.78;5037198;28;20100;-81
2022/08/12 04:07:17;;;;;;;9.88;4.57;;;;;;;16.07;65.74;101733.06;5057664;28;20534;-81
2022/08/12 04:09:45;;;;;;;5.65;4.22;;;;;;;16.07;66.70;101741.19;5071529;28;20028;-81
2022/08/12 04:14:56;;;;;;;12.03;4.87;;;;;;;16.16;66.72;101755.78;5060873;28;20307;-82
2022/08/12 04:17:22;;;;;;;11.75;4.90;;;;;;;16.15;66.76;101746.06;5045961;28;20481;-81
2022/08/12 04:19:48;;;;;;;7.93;5.18;;;;;;;16.18;67.06;101747.38;5030929;28;20029;-81
2022/08/12 04:22:14;;;;;;;11.18;4.53;;;;;;;16.18;66.61;101750.91;5040000;28;20059;-81
2022/08/12 04:24:43;;;;;;;6.53;5.13;;;;;;;16.21;67.25;101746.84;5052052;28;20024;-81
2022/08/12 04:27:10;;;;;;;6.63;4.75;;;;;;;16.16;67.07;101746.84;5050043;28;20495;-81
2022/08/12 04:29:37;;;;;;;5.88;5.22;;;;;;;16.11;67.02;101742.25;5048347;28;20032;-82
2022/08/12 04:32:05;;;;;;;12.55;5.50;;;;;;;16.14;67.24;101739.03;5051387;28;20025;-81
2022/08/12 04:34:31;;;;;;;9.88;5.70;;;;;;;16.20;67.77;101747.94;5048276;28;20046;-80
2022/08/12 04:36:56;;;;;;;7.77;5.37;;;;;;;16.16;67.32;101750.38;5043802;28;20036;-81
2022/08/12 04:39:22;;;;;;;9.48;5.05;;;;;;;16.19;67.86;101746.31;5070589;28;20103;-80
2022/08/12 04:41:51;;;;;;;9.10;4.67;;;;;;;16.16;67.84;101747.66;5071052;28;20025;-80
2022/08/12 04:44:18;;;;;;;8.93;5.20;;;;;;;16.22;67.46;101745.75;5060173;28;20526;-80
2022/08/12 04:46:44;;;;;;;9.00;5.30;;;;;;;16.15;68.59;101747.97;5050896;28;20071;-81
2022/08/12 04:49:09;;;;;;;6.40;4.90;;;;;;;16.24;67.09;101753.63;5071061;28;20499;-81
2022/08/12 04:51:35;;;;;;;6.30;5.33;;;;;;;16.23;67.92;101752.78;5048160;28;20040;-81
2022/08/12 04:54:03;;;;;;;6.43;4.97;;;;;;;16.29;67.79;101748.19;5049597;28;20051;-81
2022/08/12 04:56:29;;;;;;;11.07;5.10;;;;;;;16.32;68.29;101755.75;5042950;28;20021;-80
2022/08/12 04:58:56;;;;;;;8.40;5.23;;;;;;;16.36;67.55;101748.72;5057644;28;20039;-81
2022/08/12 05:01:26;;;;;;;6.30;5.40;;;;;;;16.38;67.70;101748.44;5056987;28;20040;-81
2022/08/12 05:03:55;;;;;;;10.25;5.00;;;;;;;16.40;68.52;101744.38;5049757;28;20122;-81
2022/08/12 05:06:21;;;;;;;6.50;5.55;;;;;;;16.44;68.91;101747.34;5049935;28;20033;-80
2022/08/12 05:08:47;;;;;;;10.63;5.40;;;;;;;16.43;68.27;101746.50;5055703;28;20032;-80
2022/08/12 05:11:12;;;;;;;11.02;5.20;;;;;;;16.49;69.00;101741.91;5061592;28;20031;-81
2022/08/12 05:13:39;;;;;;;6.90;5.20;;;;;;;16.54;68.40;101746.50;5050531;28;20025;-81
2022/08/12 05:16:06;;;;;;;7.05;5.00;;;;;;;16.60;68.43;101750.81;5050835;28;20055;-81
2022/08/12 05:18:36;;;;;;;7.45;5.05;;;;;;;16.63;68.52;101752.94;5044479;28;20113;-81
2022/08/12 05:21:02;;;;;;;7.63;5.13;;;;;;;16.67;69.15;101751.31;5065073;28;20111;-82
2022/08/12 05:23:30;;;;;;;6.87;5.30;;;;;;;16.73;68.76;101750.22;5058655;28;20160;-81
2022/08/12 05:25:55;;;;;;;9.73;5.50;;;;;;;16.85;67.84;101751.78;5049622;28;20380;-81
2022/08/12 05:28:21;;;;;;;9.20;6.03;;;;;;;17.17;67.69;101754.09;5050510;28;20099;-81
2022/08/12 05:30:47;;;;;;;13.77;5.70;;;;;;;17.77;65.20;101755.00;5050266;28;20072;-82
2022/08/12 05:33:14;;;;;;;6.80;5.30;;;;;;;18.20;63.80;101757.91;5047732;28;20129;-82
2022/08/12 05:35:41;;;;;;;8.50;5.93;;;;;;;18.46;63.69;101757.63;5049857;28;20042;-83
2022/08/12 05:41:00;;;;;;;7.13;5.35;;;;;;;18.69;61.85;101761.44;5050855;28;20557;-82
2022/08/12 05:43:25;;;;;;;10.70;5.70;;;;;;;18.71;62.21;101770.09;5053471;28;20028;-82
2022/08/12 05:45:51;;;;;;;8.95;6.20;;;;;;;18.71;62.49;101775.53;5070547;28;20154;-82
2022/08/12 05:48:16;;;;;;;10.67;6.10;;;;;;;18.65;62.78;101770.44;5070603;28;20024;-82
2022/08/12 05:50:43;;;;;;;8.37;6.00;;;;;;;18.62;62.58;101769.13;5065098;28;20031;-82
2022/08/12 05:53:09;;;;;;;10.37;5.93;;;;;;;18.64;62.90;101774.25;5070748;28;20754;-82
2022/08/12 05:55:35;;;;;;;8.90;5.97;;;;;;;18.64;63.62;101774.25;5070068;28;20150;-82
2022/08/12 05:58:01;;;;;;;8.88;6.20;;;;;;;18.62;63.12;101779.97;5043878;28;20024;-82
2022/08/12 06:00:30;;;;;;;9.07;6.30;;;;;;;18.59;64.11;101777.81;5045753;28;20031;-82
2022/08/12 06:02:59;;;;;;;11.70;6.03;;;;;;;18.60;63.81;101782.97;5050108;28;20623;-82
2022/08/12 06:05:33;;;;;;;9.63;6.32;;;;;;;18.67;63.69;101779.09;5057831;28;20032;-82
2022/08/12 06:07:59;;;;;;;9.02;6.32;;;;;;;18.70;63.33;101786.66;5070613;28;20428;-82
2022/08/12 06:10:24;;;;;;;14.93;6.65;;;;;;;18.80;63.41;101786.56;5052720;28;20025;-82
2022/08/12 06:12:50;;;;;;;16.57;6.80;;;;;;;18.84;63.73;101784.84;5046886;28;20035;-82
2022/08/12 06:15:16;;;;;;;10.13;6.90;;;;;;;18.94;63.17;101785.84;5050027;28;20059;-82
2022/08/12 06:17:42;;;;;;;13.55;7.30;;;;;;;18.97;62.96;101779.84;5058960;28;20082;-82
2022/08/12 06:20:12;;;;;;;14.07;7.27;;;;;;;19.05;63.03;101773.75;5069810;28;20560;-82
2022/08/12 06:22:46;;;;;;;11.82;7.20;;;;;;;19.16;62.37;101777.16;5068516;28;20024;-82
2022/08/12 06:25:17;;;;;;;14.43;7.70;;;;;;;19.32;63.30;101785.91;5068600;28;20614;-82
2022/08/12 06:27:48;;;;;;;8.57;6.63;;;;;;;19.43;63.23;101786.56;5058813;28;20094;-81
2022/08/12 06:30:19;;;;;;;9.98;7.07;;;;;;;19.53;62.54;101783.69;5052003;28;20138;-82
2022/08/12 06:32:46;;;;;;;14.27;6.35;;;;;;;19.68;62.37;101783.44;5056667;28;20040;-80
2022/08/12 06:35:12;;;;;;;14.68;7.65;;;;;;;19.76;62.14;101789.31;5044602;28;20103;-81
2022/08/12 06:38:04;;;;;;;13.05;7.55;;;;;;;19.86;61.58;101782.88;5037836;28;20025;-81
2022/08/12 06:43:13;;;;;;;13.67;7.93;;;;;;;20.06;61.07;101784.47;5038430;28;20391;-80
2022/08/12 06:45:44;;;;;;;12.18;7.45;;;;;;;20.18;60.26;101781.28;5063435;28;20079;-80
2022/08/12 06:48:10;;;;;;;10.43;7.50;;;;;;;20.32;59.85;101776.66;5038946;28;20616;-80
2022/08/12 06:50:37;;;;;;;13.23;7.60;;;;;;;20.42;59.47;101767.47;5032579;28;20441;-82
2022/08/12 06:53:04;;;;;;;10.65;6.97;;;;;;;20.57;59.82;101771.81;5040939;28;20033;-82
2022/08/12 06:55:32;;;;;;;17.38;7.78;;;;;;;20.71;58.89;101771.81;5029552;28;20473;-82
2022/08/12 06:58:00;;;;;;;11.38;7.75;;;;;;;20.82;58.05;101764.25;5047151;28;20561;-81
2022/08/12 07:00:29;;;;;;;10.85;7.25;;;;;;;20.96;57.98;101765.06;5047717;28;20029;-81
2022/08/12 07:02:56;;;;;;;18.20;7.68;;;;;;;21.07;57.53;101762.91;5068327;28;20110;-80
2022/08/12 07:05:24;;;;;;;11.10;7.05;;;;;;;21.21;57.44;101771.03;5068619;28;20079;-81
2022/08/12 07:08:01;;;;;;;12.57;7.70;;;;;;;21.32;56.88;101766.97;5059457;28;20029;-81
2022/08/12 07:10:28;;;;;;;11.30;7.25;;;;;;;21.48;56.06;101763.88;5050983;28;20092;-82
2022/08/12 07:12:55;;;;;;;19.93;7.50;;;;;;;21.51;55.36;101757.81;5041596;28;20038;-81
2022/08/12 07:15:23;;;;;;;214.57;13.30;;;;;;;21.71;55.81;101763.91;5046670;28;20287;-81
2022/08/12 07:18:14;;;;;;;21.52;7.88;;;;;;;21.79;54.35;101774.03;5050759;28;20100;-81
2022/08/12 07:20:42;;;;;;;40.75;8.00;;;;;;;21.92;54.26;101773.16;5046656;28;20060;-82
2022/08/12 07:23:08;;;;;;;50.92;8.18;;;;;;;22.04;54.52;101774.53;5050351;28;20036;-80
2022/08/12 07:25:35;;;;;;;25.98;7.30;;;;;;;22.16;53.56;101788.38;5054220;28;20036;-81
2022/08/12 07:28:03;;;;;;;25.42;7.50;;;;;;;22.26;53.87;101781.03;5046831;28;20064;-80
2022/08/12 07:30:31;;;;;;;13.82;7.30;;;;;;;22.42;53.04;101784.16;5053943;28;20025;-81
2022/08/12 07:33:00;;;;;;;17.73;7.50;;;;;;;22.58;52.82;101787.28;5047463;28;20025;-81
2022/08/12 07:35:26;;;;;;;27.47;7.50;;;;;;;22.73;52.94;101778.66;5049212;28;20279;-81
2022/08/12 07:37:52;;;;;;;16.33;6.63;;;;;;;22.81;51.52;101779.78;5050756;28;20028;-82
2022/08/12 07:40:18;;;;;;;9.90;6.70;;;;;;;22.91;50.98;101789.63;5068788;28;20031;-81
2022/08/12 07:42:43;;;;;;;16.25;6.88;;;;;;;23.01;50.38;101794.75;5048938;28;20033;-83
2022/08/12 07:45:11;;;;;;;17.30;6.77;;;;;;;23.11;51.35;101783.53;5051079;28;20032;-82
2022/08/12 07:47:40;;;;;;;9.88;6.15;;;;;;;23.17;49.90;101786.13;5048208;28;20071;-83
2022/08/12 07:50:08;;;;;;;11.00;6.43;;;;;;;23.33;49.11;101790.00;5043938;28;20017;-83
2022/08/12 07:52:37;;;;;;;11.05;6.22;;;;;;;23.39;49.08;101791.44;5048219;28;20465;-82
2022/08/12 07:55:03;;;;;;;12.23;6.60;;;;;;;23.47;49.39;101783.56;5056379;28;20031;-83
2022/08/12 07:57:32;;;;;;;15.27;6.60;;;;;;;23.59;48.76;101787.25;5044456;28;20702;-82
2022/08/12 08:00:05;;;;;;;9.85;5.97;;;;;;;23.65;49.09;101776.13;5062783;28;20029;-83
2022/08/12 08:02:35;;;;;;;14.25;5.97;;;;;;;23.83;47.23;101796.84;5073525;28;20637;-82
2022/08/12 08:05:01;;;;;;;11.05;5.50;;;;;;;23.96;47.30;101791.53;5061511;28;20029;-82
2022/08/12 08:07:28;;;;;;;12.05;5.03;;;;;;;24.09;46.03;101795.22;5052319;28;20503;-83
2022/08/12 08:09:57;;;;;;;11.53;5.03;;;;;;;24.31;46.42;101800.44;5058042;28;20060;-82
2022/08/12 08:15:09;;;;;;;14.45;5.00;;;;;;;24.73;45.34;101796.25;5068442;28;20048;-82
2022/08/12 08:17:36;;;;;;;8.48;4.45;;;;;;;24.88;44.01;101801.13;5048115;28;20059;-82
2022/08/12 08:20:08;;;;;;;11.63;4.85;;;;;;;24.95;43.81;101798.69;5044533;28;20108;-83
2022/08/12 08:22:37;;;;;;;9.88;4.75;;;;;;;25.13;43.21;101795.81;5038242;28;20410;-84
2022/08/12 08:25:04;;;;;;;8.35;4.70;;;;;;;25.31;42.64;101804.69;5045775;28;20029;-84
2022/08/12 08:27:44;;;;;;;10.95;4.65;;;;;;;25.39;42.99;101813.97;5060040;28;20400;-85
2022/08/12 08:30:10;;;;;;;12.18;5.10;;;;;;;25.51;41.53;101810.50;5072352;28;20032;-84
2022/08/12 08:32:36;;;;;;;11.52;4.70;;;;;;;25.53;40.68;101795.34;5072791;28;20418;-85
2022/08/12 08:35:01;;;;;;;12.83;4.50;;;;;;;25.81;41.66;101796.69;5073442;28;20024;-85
2022/08/12 08:37:26;;;;;;;15.27;4.47;;;;;;;25.92;41.14;101797.06;5047585;28;20044;-84
2022/08/12 08:39:52;;;;;;;11.63;4.57;;;;;;;26.07;39.64;101799.13;5039715;28;20103;-85
2022/08/12 08:42:38;;;;;;;9.23;4.87;;;;;;;26.21;39.34;101793.31;5034057;28;20362;-85
2022/08/12 08:45:11;;;;;;;10.15;4.65;;;;;;;26.35;38.89;101798.50;5034383;28;20397;-85
2022/08/12 08:47:42;;;;;;;12.55;4.32;;;;;;;26.50;39.00;101790.69;5033105;28;20400;-85
2022/08/12 08:50:08;;;;;;;10.93;4.28;;;;;;;26.60;38.68;101793.00;5034069;28;20433;-85
2022/08/12 08:52:36;;;;;;;13.25;4.47;;;;;;;26.78;37.64;101798.25;5033843;28;20550;-86
2022/08/12 08:55:01;;;;;;;8.98;4.30;;;;;;;26.84;36.96;101799.66;5035499;28;20033;-85
2022/08/12 08:57:31;;;;;;;7.87;3.77;;;;;;;27.03;37.15;101802.56;5049995;28;20391;-86
2022/08/12 08:59:59;;;;;;;9.80;4.43;;;;;;;27.08;36.46;101797.97;5044265;28;20033;-88
2022/08/12 09:02:24;;;;;;;9.75;4.35;;;;;;;27.19;36.21;101797.13;5038719;28;20400;-85
2022/08/12 09:04:49;;;;;;;11.48;3.97;;;;;;;27.31;35.36;101793.53;5055768;28;20017;-87
2022/08/12 09:07:17;;;;;;;9.77;4.03;;;;;;;27.42;35.05;101787.53;5057473;28;20086;-87
2022/08/12 09:09:42;;;;;;;11.52;4.20;;;;;;;27.59;34.56;101795.50;5058675;28;20025;-86
2022/08/12 09:14:51;;;;;;;7.35;3.90;;;;;;;27.62;34.17;101777.50;5061612;28;20063;-86
2022/08/12 09:17:19;;;;;;;6.60;3.70;;;;;;;27.88;34.72;101795.47;5058598;28;20028;-85
2022/08/12 09:19:44;;;;;;;11.02;3.63;;;;;;;27.90;32.23;101785.72;5073188;28;20116;-87
2022/08/12 09:22:10;;;;;;;8.63;3.60;;;;;;;28.08;33.01;101790.88;5076575;28;20471;-86
2022/08/12 09:24:36;;;;;;;8.80;3.38;;;;;;;28.19;32.09;101786.44;5442831;22;20065;-86
2022/08/12 09:27:01;;;;;;;8.70;3.43;;;;;;;28.36;32.21;101787.22;5032261;28;20060;-86
2022/08/12 09:29:28;;;;;;;8.32;3.50;;;;;;;28.49;32.89;101783.19;5012094;28;20022;-87
2022/08/12 09:31:54;;;;;;;8.53;3.77;;;;;;;28.79;33.50;101782.72;5002174;28;20029;-87
2022/08/12 09:34:19;;;;;;;9.38;3.13;;;;;;;29.04;32.58;101793.47;4999007;28;20058;-87
2022/08/12 09:36:46;;;;;;;12.00;4.00;;;;;;;29.15;32.52;101793.69;4998105;28;20022;-88
2022/08/12 09:39:12;;;;;;;10.83;3.40;;;;;;;29.20;32.20;101784.34;5005747;28;20027;-86
2022/08/12 09:41:42;;;;;;;9.57;3.50;;;;;;;29.25;30.77;101784.03;4999749;28;20281;-86
2022/08/12 09:46:52;;;;;;;5.60;3.45;;;;;;;29.51;31.38;101771.56;4998987;28;20034;-87
2022/08/12 09:49:17;;;;;;;9.30;3.47;;;;;;;29.51;31.24;101768.78;5016692;28;20022;-87
2022/08/12 09:51:43;;;;;;;7.43;3.37;;;;;;;29.49;30.97;101771.91;5026278;28;20053;-87
2022/08/12 09:54:15;;;;;;;9.87;3.53;;;;;;;29.60;29.89;101777.63;5018995;28;20046;-87
2022/08/12 09:56:42;;;;;;;8.15;3.60;;;;;;;29.71;30.01;101773.09;5022374;28;20041;-89
2022/08/12 09:59:08;;;;;;;6.32;2.95;;;;;;;29.83;28.87;101765.78;5025516;28;20022;-88
2022/08/12 10:01:37;;;;;;;7.15;3.38;;;;;;;29.85;28.67;101760.69;5023719;28;20022;-87
2022/08/12 10:04:09;;;;;;;7.40;3.25;;;;;;;29.96;28.97;101760.91;5008758;28;20466;-87
2022/08/12 10:06:38;;;;;;;7.93;3.13;;;;;;;30.15;28.09;101760.03;5000674;28;20044;-87
2022/08/12 10:09:05;;;;;;;9.20;3.87;;;;;;;30.22;28.35;101762.91;5003002;28;20078;-88
2022/08/12 10:14:15;;;;;;;11.15;3.20;;;;;;;30.19;28.04;101749.81;5007748;28;20066;-87
2022/08/12 10:16:44;;;;;;;9.75;3.42;;;;;;;30.35;27.95;101753.22;5005895;28;20027;-88
2022/08/12 10:19:11;;;;;;;13.43;3.43;;;;;;;30.38;26.82;101748.94;5006902;28;20082;-88
2022/08/12 10:21:39;;;;;;;7.23;3.27;;;;;;;30.48;27.84;101753.03;5006484;28;20309;-88
2022/08/12 10:24:15;;;;;;;6.60;2.80;;;;;;;30.56;27.49;101749.19;5006337;28;20022;-87
2022/08/12 10:29:43;;;;;;;6.15;3.30;;;;;;;30.88;27.00;101743.28;5023266;28;20064;-87
2022/08/12 10:32:11;;;;;;;3.65;3.33;;;;;;;30.91;26.87;101742.53;5024020;28;20026;-87
2022/08/12 10:34:39;;;;;;;7.20;3.13;;;;;;;30.85;26.98;101733.00;5033415;28;20057;-88
2022/08/12 10:37:05;;;;;;;7.03;3.50;;;;;;;31.04;27.34;101745.06;5036363;28;20373;-87
2022/08/12 10:39:34;;;;;;;3.80;3.35;;;;;;;31.12;26.51;101736.47;5037048;28;20030;-87
2022/08/12 10:44:48;;;;;;;6.33;3.20;;;;;;;31.30;26.08;101727.59;5023929;28;20063;-88
2022/08/12 10:47:18;;;;;;;5.83;3.60;;;;;;;31.23;26.37;101711.69;5041910;28;20289;-91
2022/08/12 10:49:43;;;;;;;7.03;3.40;;;;;;;31.43;26.21;101717.00;5054147;28;20061;-91
2022/08/12 10:52:09;;;;;;;6.83;3.40;;;;;;;31.39;26.32;101716.19;5055344;28;20037;-90
2022/08/12 10:54:34;;;;;;;4.80;3.78;;;;;;;31.48;26.11;101707.59;5053650;28;20027;-90
2022/08/12 10:57:02;;;;;;;5.40;3.17;;;;;;;31.43;25.90;101711.47;5053277;28;20120;-90
2022/08/12 10:59:28;;;;;;;7.40;3.85;;;;;;;31.52;26.21;101713.94;5038455;28;20030;-89
2022/08/12 11:02:16;;;;;;;10.27;3.90;;;;;;;31.52;25.90;101717.50;5031238;28;20034;-89
2022/08/12 11:04:42;;;;;;;7.57;3.67;;;;;;;31.55;26.04;101697.38;5034570;28;20033;-90
2022/08/12 11:07:08;;;;;;;8.53;3.33;;;;;;;31.65;25.93;101697.81;5030654;28;20295;-89
2022/08/12 11:09:34;;;;;;;6.95;3.40;;;;;;;31.71;25.27;101699.88;5049561;28;20219;-89
2022/08/12 11:12:05;;;;;;;7.03;3.67;;;;;;;31.64;25.13;101705.34;5047537;28;20041;-88
2022/08/12 11:14:33;;;;;;;4.13;3.38;;;;;;;31.75;25.88;101702.69;5038781;28;20488;-88
2022/08/12 11:17:07;;;;;;;10.13;3.30;;;;;;;31.98;25.13;101685.84;5034909;28;20048;-86
2022/08/12 11:19:35;;;;;;;6.00;3.33;;;;;;;32.14;24.35;101681.97;5049598;28;20025;-87
2022/08/12 11:22:14;;;;;;;4.97;3.10;;;;;;;32.39;24.79;101692.44;5057782;28;20037;-87
2022/08/12 11:24:39;;;;;;;7.82;3.53;;;;;;;32.24;24.21;101685.97;5041313;28;20041;-92
2022/08/12 11:27:07;;;;;;;7.47;3.37;;;;;;;32.22;25.31;101685.56;5052332;28;20013;-93
2022/08/12 11:29:34;;;;;;;12.80;3.80;;;;;;;32.39;24.81;101679.34;5072713;28;20025;-90
2022/08/12 11:31:59;;;;;;;7.97;3.60;;;;;;;32.35;24.99;101670.22;5062569;28;20030;-89
2022/08/12 11:34:25;;;;;;;9.80;3.80;;;;;;;32.30;24.22;101673.38;5057795;28;20084;-90
2022/08/12 11:36:51;;;;;;;4.93;3.17;;;;;;;32.31;24.11;101674.97;5041571;28;20528;-90
2022/08/12 11:39:17;;;;;;;5.60;3.10;;;;;;;32.27;23.82;101663.06;5046277;28;20052;-89
2022/08/12 11:41:42;;;;;;;11.05;3.53;;;;;;;32.24;24.39;101661.03;5052020;28;20032;-89
2022/08/12 11:44:08;;;;;;;6.53;3.37;;;;;;;32.45;24.13;101668.69;5050971;28;20018;-89
2022/08/12 11:46:35;;;;;;;4.60;3.73;;;;;;;32.56;24.11;101674.28;5073169;28;20017;-89
2022/08/12 11:49:01;;;;;;;6.10;3.15;;;;;;;32.45;23.66;101654.81;5040351;28;20036;-88
2022/08/12 11:51:28;;;;;;;6.60;3.65;;;;;;;32.63;24.25;101652.91;5032592;28;20018;-89
2022/08/12 11:54:15;;;;;;;6.10;3.67;;;;;;;32.53;24.12;101655.63;5037050;28;20161;-89
2022/08/12 11:56:40;;;;;;;8.52;3.78;;;;;;;32.38;24.05;101647.25;5047355;28;20013;-88
2022/08/12 11:59:14;;;;;;;3.73;3.27;;;;;;;32.55;24.95;101656.03;5053664;28;20033;-88
2022/08/12 12:01:39;;;;;;;3.70;3.40;;;;;;;32.60;24.41;101652.91;5046312;28;20324;-88
2022/08/12 12:04:04;;;;;;;6.07;3.10;;;;;;;32.65;23.78;101646.97;5028878;28;20030;-89
2022/08/12 12:06:30;;;;;;;11.73;3.30;;;;;;;32.84;23.52;101648.63;5046019;28;20029;-88
2022/08/12 12:08:55;;;;;;;8.40;2.97;;;;;;;32.86;23.67;101645.47;5054731;28;20075;-88
2022/08/12 12:11:21;;;;;;;7.37;3.67;;;;;;;32.80;23.04;101639.47;5054302;28;20025;-88
2022/08/12 12:13:47;;;;;;;6.45;3.38;;;;;;;32.91;23.67;101633.97;5055853;28;20029;-92
2022/08/12 12:16:12;;;;;;;7.05;3.20;;;;;;;32.86;22.81;101635.16;5057437;28;20036;-90
2022/08/12 12:18:38;;;;;;;9.27;3.10;;;;;;;33.05;22.81;101638.75;5046686;28;20030;-89
2022/08/12 12:21:06;;;;;;;4.27;3.67;;;;;;;33.23;22.90;101628.47;5036297;28;20053;-88
2022/08/12 12:23:33;;;;;;;7.32;3.70;;;;;;;33.24;22.09;101637.56;5030282;28;20090;-88
2022/08/12 12:25:59;;;;;;;5.85;3.15;;;;;;;33.35;23.00;101637.56;5044147;28;20024;-88
2022/08/12 12:28:25;;;;;;;6.75;3.60;;;;;;;33.34;22.64;101633.22;5051428;28;20040;-88
2022/08/12 12:30:50;;;;;;;7.63;3.87;;;;;;;33.57;22.64;101623.72;5046216;28;20034;-89
2022/08/12 12:33:15;;;;;;;6.00;3.17;;;;;;;33.58;22.65;101619.75;5038689;28;20034;-89
2022/08/12 12:35:41;;;;;;;6.83;3.87;;;;;;;33.52;23.17;101620.13;5055913;28;20033;-90
2022/08/12 12:38:10;;;;;;;6.13;3.15;;;;;;;33.39;22.71;101620.97;5041741;28;20014;-87
2022/08/12 12:40:36;;;;;;;7.05;4.00;;;;;;;33.45;23.25;101627.69;5027096;28;20030;-86
2022/08/12 12:43:03;;;;;;;8.77;3.80;;;;;;;33.28;22.77;101615.38;5023031;28;20391;-87
2022/08/12 12:45:31;;;;;;;4.60;3.40;;;;;;;33.39;23.53;101596.75;5017448;28;20807;-86
2022/08/12 12:48:10;;;;;;;6.80;3.58;;;;;;;33.66;22.67;101594.31;5015747;28;20076;-84
2022/08/12 12:50:44;;;;;;;4.63;4.00;;;;;;;33.91;22.18;101598.25;5013869;28;20038;-83
2022/08/12 12:53:11;;;;;;;7.68;3.95;;;;;;;34.02;22.57;101601.81;5036359;28;20535;-86
2022/08/12 12:55:40;;;;;;;10.23;4.68;;;;;;;33.98;23.06;101604.56;5025587;28;20030;-87
2022/08/12 12:58:10;;;;;;;6.75;3.72;;;;;;;34.02;22.70;101592.66;5023347;28;20426;-86
2022/08/12 13:00:41;;;;;;;11.52;5.03;;;;;;;33.83;22.42;101597.47;5026259;28;20026;-86
2022/08/12 13:03:06;;;;;;;8.90;4.07;;;;;;;33.65;22.84;101591.97;5020050;28;20081;-87
2022/08/12 13:05:35;;;;;;;6.20;4.10;;;;;;;33.91;22.26;101578.81;5024882;28;20433;-86
2022/08/12 13:08:02;;;;;;;9.48;4.50;;;;;;;33.88;22.55;101569.25;5029469;28;20443;-87